createdAt,value
2019-03-19T00:02:11.985Z,97128.23
2019-03-19T00:04:51.474Z,97128.06
2019-03-19T00:07:20.669Z,97131.12
2019-03-19T00:09:53.962Z,97129.72
2019-03-19T00:12:24.212Z,97131.95
2019-03-19T00:14:57.553Z,97127.98
2019-03-19T00:17:26.774Z,97126.92
2019-03-19T00:19:55.920Z,97133.57
2019-03-19T00:22:25.878Z,97130.27
2019-03-19T00:24:55.197Z,97064.44
2019-03-19T00:27:24.297Z,97132.48
2019-03-19T00:29:53.396Z,97130.00
2019-03-19T00:32:27.748Z,97134.16
2019-03-19T00:34:58.210Z,97133.17
2019-03-19T00:37:27.867Z,97136.13
2019-03-19T00:39:58.048Z,97133.02
2019-03-19T00:42:27.526Z,97139.83
2019-03-19T00:44:56.680Z,97142.39
2019-03-19T00:47:27.675Z,97139.70
2019-03-19T00:49:56.815Z,97138.56
2019-03-19T00:52:25.879Z,97134.33
2019-03-19T00:54:59.365Z,97141.98
2019-03-19T00:57:28.759Z,97137.03
2019-03-19T01:00:02.473Z,97138.16
2019-03-19T01:02:33.123Z,97140.62
2019-03-19T01:05:02.267Z,97140.75
2019-03-19T01:07:31.714Z,97142.23
2019-03-19T01:10:00.828Z,97141.19
2019-03-19T01:12:29.890Z,97138.02
2019-03-19T01:15:00.719Z,97143.32
2019-03-19T01:17:31.022Z,97137.08
2019-03-19T01:20:00.134Z,97137.25
2019-03-19T01:22:29.647Z,97140.41
2019-03-19T01:24:58.724Z,97141.27
2019-03-19T01:27:27.873Z,97150.45
2019-03-19T01:29:57.173Z,97150.59
2019-03-19T01:32:26.811Z,97149.00
2019-03-19T01:34:55.991Z,97152.58
2019-03-19T01:37:25.050Z,97154.64
2019-03-19T01:39:54.470Z,97144.52
2019-03-19T01:42:23.649Z,97142.02
2019-03-19T01:44:53.151Z,97143.50
2019-03-19T01:47:24.988Z,97139.93
2019-03-19T01:49:58.203Z,97145.38
2019-03-19T01:52:32.503Z,97148.34
2019-03-19T01:55:03.169Z,97150.80
2019-03-19T01:57:32.272Z,97153.39
2019-03-19T02:00:10.631Z,97149.48
2019-03-19T02:02:39.703Z,97154.30
2019-03-19T02:05:09.008Z,97149.77
2019-03-19T02:07:38.073Z,97152.77
2019-03-19T02:10:09.263Z,97150.80
2019-03-19T02:12:38.355Z,97151.64
2019-03-19T02:18:13.355Z,97158.61
2019-03-19T02:20:47.189Z,97156.39
2019-03-19T02:23:16.243Z,97159.45
2019-03-19T02:25:45.348Z,97161.52
2019-03-19T02:28:15.326Z,97157.58
2019-03-19T02:30:44.398Z,97161.30
2019-03-19T02:33:13.469Z,97158.33
2019-03-19T02:35:44.186Z,97162.34
2019-03-19T02:38:15.411Z,97167.20
2019-03-19T02:40:53.818Z,97163.73
2019-03-19T02:43:24.305Z,97165.15
2019-03-19T02:45:54.878Z,97166.45
2019-03-19T02:48:26.181Z,97163.74
2019-03-19T02:50:56.280Z,97164.22
2019-03-19T02:53:25.372Z,97167.59
2019-03-19T02:55:54.795Z,97167.25
2019-03-19T02:58:29.995Z,97168.75
2019-03-19T03:00:59.189Z,96996.58
2019-03-19T03:03:29.828Z,97178.44
2019-03-19T03:05:58.852Z,97173.16
2019-03-19T03:08:28.374Z,97174.11
2019-03-19T03:11:01.672Z,97173.80
2019-03-19T03:13:31.920Z,97171.31
2019-03-19T03:16:00.998Z,97170.00
2019-03-19T03:18:31.518Z,97168.59
2019-03-19T03:21:01.104Z,97175.29
2019-03-19T03:23:31.299Z,97169.17
2019-03-19T03:26:06.884Z,97173.01
2019-03-19T03:28:35.979Z,97175.95
2019-03-19T03:31:07.381Z,97173.52
2019-03-19T03:33:42.492Z,97184.77
2019-03-19T03:36:11.552Z,97187.97
2019-03-19T03:38:40.617Z,97187.13
2019-03-19T03:41:12.198Z,97187.03
2019-03-19T03:43:41.301Z,97189.55
2019-03-19T03:46:15.441Z,97193.00
2019-03-19T03:48:45.674Z,97195.02
2019-03-19T03:51:14.747Z,97205.18
2019-03-19T03:53:43.868Z,97204.54
2019-03-19T03:56:14.337Z,97198.28
2019-03-19T03:58:59.844Z,97197.50
2019-03-19T04:01:18.877Z,97230.01
2019-03-19T04:03:48.220Z,97215.41
2019-03-19T04:06:23.372Z,97218.68
2019-03-19T04:09:03.808Z,97220.34
2019-03-19T04:11:38.041Z,97218.53
2019-03-19T04:14:07.340Z,97219.03
2019-03-19T04:16:36.480Z,97219.45
2019-03-19T04:19:06.913Z,97224.12
2019-03-19T04:21:39.126Z,97229.06
2019-03-19T04:24:11.273Z,97229.09
2019-03-19T04:26:40.407Z,97258.14
2019-03-19T04:29:13.384Z,97234.20
2019-03-19T04:31:42.527Z,97235.47
2019-03-19T04:34:11.640Z,97240.52
2019-03-19T04:36:40.702Z,97240.27
2019-03-19T04:39:11.520Z,97237.58
2019-03-19T04:41:46.648Z,97247.39
2019-03-19T04:44:18.856Z,97251.90
2019-03-19T04:46:48.098Z,97255.81
2019-03-19T04:49:17.428Z,97260.49
2019-03-19T04:51:46.496Z,97257.20
2019-03-19T04:54:18.114Z,97254.11
2019-03-19T04:56:47.181Z,97257.34
2019-03-19T04:59:16.672Z,97262.01
2019-03-19T05:01:46.055Z,97263.88
2019-03-19T05:04:25.757Z,97265.33
2019-03-19T05:06:54.882Z,97271.22
2019-03-19T05:09:24.468Z,97276.82
2019-03-19T05:11:53.559Z,97278.17
2019-03-19T05:14:24.180Z,97283.08
2019-03-19T05:16:55.822Z,97293.53
2019-03-19T05:19:24.916Z,97295.94
2019-03-19T05:21:55.790Z,97295.78
2019-03-19T05:26:52.925Z,97300.30
2019-03-19T05:29:22.066Z,97296.66
2019-03-19T05:31:51.183Z,97302.56
2019-03-19T05:34:21.582Z,97297.88
2019-03-19T05:36:54.403Z,97301.78
2019-03-19T05:39:25.146Z,97307.25
2019-03-19T05:41:58.791Z,97306.70
2019-03-19T05:44:28.123Z,95722.39
2019-03-19T05:47:01.373Z,97297.05
2019-03-19T05:49:31.831Z,97319.74
2019-03-19T05:52:02.561Z,96994.47
2019-03-19T05:54:34.024Z,97323.62
2019-03-19T05:57:03.122Z,97326.95
2019-03-19T05:59:32.258Z,97324.84
2019-03-19T06:02:04.135Z,97329.69
2019-03-19T06:04:39.279Z,97328.32
2019-03-19T06:07:10.669Z,97326.27
2019-03-19T06:09:40.133Z,97335.77
2019-03-19T06:12:10.522Z,97337.30
2019-03-19T06:14:39.692Z,97341.69
2019-03-19T06:17:08.898Z,97338.55
2019-03-19T06:19:38.276Z,97343.33
2019-03-19T06:22:07.372Z,97342.14
2019-03-19T06:24:36.578Z,97338.08
2019-03-19T06:27:06.719Z,97346.23
2019-03-19T06:29:35.815Z,97342.98
2019-03-19T06:32:06.268Z,97344.72
2019-03-19T06:34:35.417Z,97343.22
2019-03-19T06:37:09.451Z,97351.03
2019-03-19T06:39:50.789Z,97345.86
2019-03-19T06:42:20.214Z,97352.86
2019-03-19T06:44:50.855Z,97354.05
2019-03-19T06:47:20.894Z,97348.62
2019-03-19T06:49:50.172Z,97352.91
2019-03-19T06:52:19.436Z,97359.41
2019-03-19T06:54:49.237Z,97364.24
2019-03-19T06:57:22.005Z,97366.61
2019-03-19T06:59:54.282Z,97358.34
2019-03-19T07:02:23.686Z,97375.32
2019-03-19T07:04:53.903Z,97369.86
2019-03-19T07:07:27.091Z,97370.36
2019-03-19T07:09:56.862Z,97385.16
2019-03-19T07:12:25.976Z,97383.52
2019-03-19T07:14:56.573Z,97382.59
2019-03-19T07:17:26.284Z,97332.52
2019-03-19T07:19:55.547Z,97415.94
2019-03-19T07:22:29.908Z,97417.22
2019-03-19T07:24:58.956Z,97396.86
2019-03-19T07:27:28.193Z,97399.95
2019-03-19T07:30:01.432Z,97402.98
2019-03-19T07:32:32.964Z,97400.39
2019-03-19T07:35:14.242Z,97402.58
2019-03-19T07:37:43.321Z,97400.33
2019-03-19T07:40:12.791Z,97403.05
2019-03-19T07:42:41.895Z,97410.78
2019-03-19T07:45:18.449Z,97418.73
2019-03-19T07:47:48.018Z,97411.70
2019-03-19T07:50:20.257Z,97413.31
2019-03-19T07:52:49.691Z,97421.66
2019-03-19T07:55:22.211Z,97417.89
2019-03-19T07:57:51.706Z,97418.82
2019-03-19T08:00:20.835Z,97422.67
2019-03-19T08:02:52.909Z,97423.63
2019-03-19T08:05:32.309Z,97415.98
2019-03-19T08:07:59.558Z,97413.05
2019-03-19T08:10:31.213Z,97430.70
2019-03-19T08:13:02.334Z,97426.42
2019-03-19T08:15:31.434Z,97428.51
2019-03-19T08:18:04.401Z,97422.55
2019-03-19T08:20:33.537Z,97433.07
2019-03-19T08:23:02.708Z,97432.98
2019-03-19T08:25:33.032Z,97432.00
2019-03-19T08:28:10.543Z,97436.01
2019-03-19T08:30:39.800Z,97438.00
2019-03-19T08:33:11.609Z,97447.50
2019-03-19T08:35:43.403Z,97438.70
2019-03-19T08:38:15.259Z,97438.69
2019-03-19T08:40:44.423Z,97454.06
2019-03-19T08:43:13.789Z,97454.14
2019-03-19T08:45:43.339Z,97449.41
2019-03-19T08:48:12.513Z,97445.73
2019-03-19T08:50:44.893Z,97450.08
2019-03-19T08:53:19.900Z,97458.05
2019-03-19T08:55:50.509Z,97461.91
2019-03-19T08:58:19.578Z,97466.73
2019-03-19T09:00:48.743Z,97464.73
2019-03-19T09:03:20.578Z,97464.59
2019-03-19T09:05:50.018Z,97465.91
2019-03-19T09:08:24.863Z,97467.47
2019-03-19T09:10:59.319Z,97473.20
2019-03-19T09:13:28.638Z,97170.47
2019-03-19T09:15:58.008Z,97469.30
2019-03-19T09:18:27.115Z,97466.24
2019-03-19T09:20:59.112Z,97466.92
2019-03-19T09:23:33.396Z,97189.08
2019-03-19T09:26:05.265Z,97473.49
2019-03-19T09:28:34.465Z,97473.32
2019-03-19T09:31:04.140Z,97465.98
2019-03-19T09:33:34.932Z,97466.35
2019-03-19T09:36:06.351Z,97469.97
2019-03-19T09:38:37.207Z,97476.81
2019-03-19T09:41:09.489Z,97471.21
2019-03-19T09:43:40.615Z,97467.42
2019-03-19T09:46:11.005Z,97467.34
2019-03-19T09:48:43.386Z,97466.21
2019-03-19T09:51:17.018Z,97469.98
2019-03-19T09:53:51.005Z,97182.64
2019-03-19T09:56:24.778Z,97468.75
2019-03-19T09:58:55.415Z,97466.30
2019-03-19T10:01:26.985Z,97470.66
2019-03-19T10:03:56.512Z,97475.93
2019-03-19T10:06:26.379Z,97468.39
2019-03-19T10:08:55.690Z,97479.28
2019-03-19T10:11:27.895Z,97183.03
2019-03-19T10:14:01.728Z,97488.03
2019-03-19T10:16:30.914Z,97488.08
2019-03-19T10:19:02.846Z,97488.67
2019-03-19T10:21:33.888Z,97482.19
2019-03-19T10:24:07.539Z,97490.67
2019-03-19T10:26:36.705Z,97491.45
2019-03-19T10:29:07.769Z,97492.26
2019-03-19T10:31:38.157Z,97514.47
2019-03-19T10:34:09.840Z,97487.09
2019-03-19T10:36:38.956Z,97490.41
2019-03-19T10:39:11.783Z,97492.01
2019-03-19T10:41:41.436Z,97247.60
2019-03-19T10:44:11.507Z,97489.94
2019-03-19T10:46:47.829Z,97491.21
2019-03-19T10:49:17.759Z,97492.00
2019-03-19T10:51:50.230Z,97505.09
2019-03-19T10:54:19.812Z,97500.30
2019-03-19T10:56:52.315Z,97504.97
2019-03-19T10:59:22.468Z,97505.41
2019-03-19T11:01:55.213Z,97507.70
2019-03-19T11:04:24.862Z,97509.53
2019-03-19T11:06:55.429Z,97506.64
2019-03-19T11:09:24.853Z,97508.64
2019-03-19T11:11:54.141Z,97208.10
2019-03-19T11:14:26.432Z,97513.20
2019-03-19T11:16:58.676Z,97511.12
2019-03-19T11:19:29.007Z,97511.23
2019-03-19T11:21:58.305Z,97502.11
2019-03-19T11:24:27.498Z,97506.48
2019-03-19T11:26:56.836Z,97499.61
2019-03-19T11:29:29.097Z,97117.55
2019-03-19T11:32:03.817Z,97503.81
2019-03-19T11:34:34.337Z,97504.11
2019-03-19T11:37:05.677Z,97494.98
2019-03-19T11:39:44.359Z,97493.03
2019-03-19T11:42:16.653Z,97497.08
2019-03-19T11:44:46.404Z,97498.15
2019-03-19T11:47:16.620Z,97485.85
2019-03-19T11:49:45.792Z,97487.82
2019-03-19T11:52:17.230Z,97492.09
2019-03-19T11:54:49.848Z,97483.48
2019-03-19T11:57:22.669Z,97493.80
2019-03-19T11:59:55.391Z,97489.73
2019-03-19T12:02:26.444Z,97496.24
2019-03-19T12:04:56.729Z,97495.55
2019-03-19T12:07:30.491Z,97489.83
2019-03-19T12:09:59.705Z,97489.35
2019-03-19T12:12:30.737Z,97487.83
2019-03-19T12:14:59.884Z,97492.73
2019-03-19T12:17:30.647Z,97487.39
2019-03-19T12:20:01.032Z,97508.03
2019-03-19T12:22:30.174Z,97480.48
2019-03-19T12:25:07.227Z,97486.13
2019-03-19T12:27:41.061Z,97524.37
2019-03-19T12:30:21.479Z,97498.83
2019-03-19T12:32:42.272Z,97498.77
2019-03-19T12:35:15.338Z,97495.20
2019-03-19T12:37:46.017Z,97491.46
2019-03-19T12:40:15.217Z,97493.87
2019-03-19T12:42:45.887Z,97491.55
2019-03-19T12:45:15.635Z,97486.08
2019-03-19T12:47:49.012Z,97480.00
2019-03-19T12:50:18.625Z,97472.95
2019-03-19T12:52:47.811Z,97474.12
2019-03-19T12:55:18.589Z,97475.55
2019-03-19T12:57:47.759Z,97480.65
2019-03-19T13:00:19.523Z,97475.70
2019-03-19T13:02:50.668Z,97478.11
2019-03-19T13:05:22.527Z,97482.84
2019-03-19T13:07:58.812Z,97471.88
2019-03-19T13:10:27.984Z,97480.75
2019-03-19T13:12:57.994Z,97472.59
2019-03-19T13:15:27.379Z,97473.11
2019-03-19T13:18:00.873Z,97471.28
2019-03-19T13:20:39.610Z,97474.86
2019-03-19T13:23:17.188Z,97476.70
2019-03-19T13:25:46.330Z,97475.59
2019-03-19T13:28:15.418Z,97471.55
2019-03-19T13:30:45.617Z,97470.40
2019-03-19T13:33:16.469Z,97474.27
2019-03-19T13:35:45.633Z,97474.23
2019-03-19T13:38:16.041Z,97473.46
2019-03-19T13:40:45.254Z,97476.85
2019-03-19T13:43:25.605Z,97480.54
2019-03-19T13:45:57.908Z,97477.27
2019-03-19T13:48:27.126Z,97476.89
2019-03-19T13:51:06.902Z,97482.27
2019-03-19T13:53:36.246Z,97482.14
2019-03-19T13:56:07.311Z,97473.66
2019-03-19T13:58:36.441Z,97249.00
2019-03-19T14:01:05.737Z,97479.67
2019-03-19T14:03:37.573Z,97472.08
2019-03-19T14:06:10.353Z,97480.13
2019-03-19T14:08:39.569Z,97476.91
2019-03-19T14:11:09.871Z,97491.16
2019-03-19T14:13:39.965Z,97514.34
2019-03-19T14:16:11.039Z,97492.92
2019-03-19T14:18:41.939Z,97497.58
2019-03-19T14:21:12.182Z,97488.36
2019-03-19T14:23:42.096Z,97495.08
2019-03-19T14:26:12.246Z,97492.27
2019-03-19T14:28:41.326Z,97499.67
2019-03-19T14:31:18.984Z,97497.77
2019-03-19T14:33:54.354Z,97491.61
2019-03-19T14:36:26.981Z,97494.08
2019-03-19T14:38:56.162Z,97495.24
2019-03-19T14:41:30.579Z,97490.41
2019-03-19T14:44:07.211Z,97517.78
2019-03-19T14:46:44.717Z,97500.09
2019-03-19T14:49:13.823Z,97492.39
2019-03-19T14:51:42.980Z,97500.91
2019-03-19T14:54:14.070Z,97497.19
2019-03-19T14:56:48.632Z,97498.39
2019-03-19T14:59:17.767Z,97498.84
2019-03-19T15:01:46.854Z,97489.19
2019-03-19T15:04:17.491Z,97498.74
2019-03-19T15:06:48.970Z,97490.80
2019-03-19T15:09:18.125Z,97492.17
2019-03-19T15:11:47.352Z,97493.19
2019-03-19T15:14:16.551Z,97499.31
2019-03-19T15:16:49.796Z,97494.06
2019-03-19T15:19:19.681Z,97498.19
2019-03-19T15:21:50.573Z,97492.63
2019-03-19T15:24:24.395Z,97498.44
2019-03-19T15:26:54.575Z,97496.75
2019-03-19T15:29:24.206Z,97494.31
2019-03-19T15:31:53.516Z,97501.95
2019-03-19T15:34:23.088Z,97502.52
2019-03-19T15:36:54.547Z,97502.13
2019-03-19T15:39:23.896Z,97500.57
2019-03-19T15:41:53.254Z,97491.16
2019-03-19T15:44:24.890Z,97495.48
2019-03-19T15:46:56.789Z,97496.45
2019-03-19T15:49:26.393Z,97496.31
2019-03-19T15:51:56.263Z,97500.61
2019-03-19T15:54:26.845Z,97509.77
2019-03-19T15:56:56.174Z,97513.28
2019-03-19T15:59:26.219Z,97514.61
2019-03-19T16:01:55.314Z,97520.08
2019-03-19T16:04:26.547Z,97516.28
2019-03-19T16:07:04.389Z,97524.10
2019-03-19T16:09:39.828Z,97528.33
2019-03-19T16:12:07.540Z,97528.95
2019-03-19T16:14:36.840Z,97533.89
2019-03-19T16:17:06.105Z,97536.08
2019-03-19T16:19:35.172Z,97534.38
2019-03-19T16:22:08.773Z,97535.70
2019-03-19T16:24:37.867Z,97540.19
2019-03-19T16:27:12.265Z,97547.52
2019-03-19T16:29:41.376Z,97553.73
2019-03-19T16:32:12.146Z,97551.41
2019-03-19T16:34:41.517Z,97557.22
2019-03-19T16:37:10.649Z,97555.70
2019-03-19T16:39:39.736Z,97556.46
2019-03-19T16:42:11.310Z,97563.94
2019-03-19T16:44:40.395Z,97563.87
2019-03-19T16:47:09.775Z,97567.84
2019-03-19T16:49:40.002Z,97566.59
2019-03-19T16:52:09.091Z,97572.91
2019-03-19T16:54:40.669Z,97571.14
2019-03-19T16:57:09.764Z,97578.45
2019-03-19T16:59:39.653Z,97576.66
2019-03-19T17:02:11.840Z,97583.92
2019-03-19T17:04:40.934Z,97585.61
2019-03-19T17:07:10.016Z,97587.74
2019-03-19T17:09:39.080Z,97592.52
2019-03-19T17:12:09.486Z,97595.22
2019-03-19T17:14:40.125Z,97599.35
2019-03-19T17:17:16.280Z,97601.27
2019-03-19T17:19:45.302Z,97607.87
2019-03-19T17:22:14.408Z,97609.78
2019-03-19T17:24:43.535Z,97617.49
2019-03-19T17:27:12.708Z,97622.36
2019-03-19T17:29:43.422Z,97625.14
2019-03-19T17:32:13.541Z,97631.63
2019-03-19T17:34:44.018Z,97633.15
2019-03-19T17:37:14.689Z,97640.71
2019-03-19T17:39:43.798Z,97641.85
2019-03-19T17:42:12.916Z,97645.42
2019-03-19T17:44:42.052Z,97645.25
2019-03-19T17:47:13.244Z,97638.28
2019-03-19T17:49:46.022Z,97351.09
2019-03-19T17:52:15.587Z,97651.66
2019-03-19T17:54:49.469Z,97650.45
2019-03-19T17:57:18.836Z,97656.01
2019-03-19T17:59:52.006Z,97657.80
2019-03-19T18:02:24.465Z,97662.85
2019-03-19T18:04:54.411Z,97661.98
2019-03-19T18:07:23.492Z,97669.53
2019-03-19T18:09:52.610Z,97667.57
2019-03-19T18:12:25.873Z,97664.02
2019-03-19T18:14:55.748Z,97669.11
2019-03-19T18:17:24.944Z,97667.95
2019-03-19T18:19:55.276Z,97679.04
2019-03-19T18:22:27.186Z,97690.48
2019-03-19T18:24:57.902Z,97690.16
2019-03-19T18:27:27.067Z,97689.39
2019-03-19T18:29:59.988Z,97697.88
2019-03-19T18:32:35.095Z,97700.09
2019-03-19T18:35:04.479Z,97702.08
2019-03-19T18:37:33.666Z,97704.88
2019-03-19T18:40:09.536Z,97704.47
2019-03-19T18:42:38.309Z,97704.84
2019-03-19T18:45:07.703Z,97710.24
2019-03-19T18:47:38.268Z,97712.19
2019-03-19T18:50:09.490Z,97715.13
2019-03-19T18:52:38.703Z,97714.31
2019-03-19T18:55:12.165Z,97721.03
2019-03-19T18:57:43.802Z,97719.33
2019-03-19T19:00:18.676Z,97717.58
2019-03-19T19:02:50.165Z,97720.49
2019-03-19T19:05:18.933Z,97726.88
2019-03-19T19:07:49.150Z,97734.71
2019-03-19T19:10:20.865Z,97734.12
2019-03-19T19:12:49.155Z,97732.65
2019-03-19T19:15:18.393Z,97730.56
2019-03-19T19:17:47.529Z,97735.38
2019-03-19T19:20:42.663Z,97740.44
2019-03-19T19:23:13.094Z,97739.02
2019-03-19T19:25:46.417Z,97745.13
2019-03-19T19:28:17.569Z,97746.07
2019-03-19T19:30:46.546Z,97746.41
2019-03-19T19:33:15.663Z,97750.08
2019-03-19T19:35:46.062Z,97754.34
2019-03-19T19:38:16.640Z,97750.94
2019-03-19T19:40:45.805Z,97759.78
2019-03-19T19:43:14.920Z,97995.53
2019-03-19T19:45:44.420Z,97751.16
2019-03-19T19:48:16.432Z,97755.56
2019-03-19T19:50:47.323Z,97756.06
2019-03-19T19:53:17.570Z,97752.64
2019-03-19T19:55:50.744Z,97762.86
2019-03-19T19:58:19.988Z,97753.02
2019-03-19T20:00:49.193Z,97758.88
2019-03-19T20:03:18.412Z,97760.13
2019-03-19T20:05:47.575Z,97761.68
2019-03-19T20:08:17.776Z,97450.91
2019-03-19T20:10:50.433Z,97427.50
2019-03-19T20:13:19.577Z,97757.61
2019-03-19T20:15:48.718Z,97758.48
2019-03-19T20:18:17.798Z,96236.07
2019-03-19T20:20:48.229Z,97762.48
2019-03-19T20:23:18.867Z,97758.61
2019-03-19T20:25:47.960Z,97760.20
2019-03-19T20:28:18.581Z,97765.33
2019-03-19T20:30:50.092Z,97765.89
2019-03-19T20:33:25.316Z,97766.30
2019-03-19T20:35:55.765Z,97766.98
2019-03-19T20:38:25.218Z,97771.02
2019-03-19T20:40:54.337Z,97770.05
2019-03-19T20:43:26.397Z,97769.13
2019-03-19T20:45:55.522Z,97772.23
2019-03-19T20:48:24.604Z,97776.07
2019-03-19T20:50:57.019Z,97776.81
2019-03-19T20:53:27.046Z,97783.23
2019-03-19T20:55:58.860Z,97782.72
2019-03-19T20:58:29.618Z,97780.86
2019-03-19T21:01:04.986Z,97794.20
2019-03-19T21:03:36.308Z,97797.81
2019-03-19T21:06:08.499Z,97800.52
2019-03-19T21:08:49.931Z,97813.89
2019-03-19T21:11:20.610Z,97816.05
2019-03-19T21:13:58.188Z,97819.27
2019-03-19T21:16:29.516Z,97822.25
2019-03-19T21:19:03.190Z,97832.12
2019-03-19T21:21:32.338Z,97829.81
2019-03-19T21:24:01.430Z,97832.27
2019-03-19T21:26:30.607Z,97833.87
2019-03-19T21:29:00.764Z,97830.00
2019-03-19T21:31:35.552Z,97832.88
2019-03-19T21:34:04.672Z,97833.19
2019-03-19T21:36:36.105Z,97839.60
2019-03-19T21:39:09.810Z,97835.73
2019-03-19T21:41:38.945Z,97844.37
2019-03-19T21:44:09.380Z,97842.23
2019-03-19T21:46:38.426Z,97845.94
2019-03-19T21:49:11.048Z,97847.27
2019-03-19T21:51:41.093Z,97843.83
2019-03-19T21:54:11.752Z,97845.63
2019-03-19T21:56:43.201Z,97848.42
2019-03-19T21:59:12.301Z,97848.75
2019-03-19T22:01:41.776Z,97853.11
2019-03-19T22:04:10.925Z,97859.17
2019-03-19T22:06:42.587Z,97853.59
2019-03-19T22:09:12.933Z,97855.95
2019-03-19T22:11:43.519Z,97859.58
2019-03-19T22:14:12.703Z,97865.44
2019-03-19T22:16:43.960Z,97862.81
2019-03-19T22:19:14.286Z,97868.20
2019-03-19T22:21:43.493Z,97861.00
2019-03-19T22:24:14.311Z,97855.95
2019-03-19T22:26:46.417Z,97855.69
2019-03-19T22:29:17.482Z,97866.45
2019-03-19T22:31:46.587Z,97870.80
2019-03-19T22:34:15.744Z,97895.36
2019-03-19T22:36:47.308Z,97865.02
2019-03-19T22:39:16.453Z,97869.11
2019-03-19T22:41:45.670Z,97865.09
2019-03-19T22:44:15.872Z,97869.41
2019-03-19T22:46:47.550Z,97867.64
2019-03-19T22:49:16.648Z,97868.65
2019-03-19T22:51:47.099Z,97871.33
2019-03-19T22:54:16.157Z,97873.67
2019-03-19T22:56:45.353Z,97877.38
2019-03-19T22:59:14.551Z,97875.49
2019-03-19T23:01:43.806Z,97873.02
2019-03-19T23:04:12.975Z,97872.55
2019-03-19T23:06:42.464Z,97879.66
2019-03-19T23:09:11.761Z,97884.38
2019-03-19T23:11:46.467Z,97884.77
2019-03-19T23:14:15.202Z,97888.20
2019-03-19T23:16:44.319Z,97886.58
2019-03-19T23:19:20.234Z,97887.89
2019-03-19T23:21:50.657Z,97887.41
2019-03-19T23:24:26.279Z,97891.88
2019-03-19T23:26:55.833Z,97885.84
2019-03-19T23:29:29.007Z,97895.27
2019-03-19T23:31:58.268Z,97898.50
2019-03-19T23:34:38.210Z,97899.58
2019-03-19T23:37:02.655Z,97892.16
2019-03-19T23:39:34.239Z,97896.33
2019-03-19T23:42:03.369Z,97899.31
2019-03-19T23:44:37.123Z,97907.34
2019-03-19T23:47:07.021Z,97906.84
2019-03-19T23:49:36.147Z,97899.54
2019-03-19T23:52:10.149Z,97906.55
2019-03-19T23:54:39.254Z,97905.55
2019-03-19T23:57:08.792Z,97904.18
2019-03-19T23:59:42.374Z,97905.55
